sensor_id;sensor_type;location;lat;lon;timestamp;temperature;humidity
3940;DHT22;1984;48.312;9.244;2023-08-24T00:00:38;17.90;99.90
3940;DHT22;1984;48.312;9.244;2023-08-24T00:03:04;18.00;99.90
3940;DHT22;1984;48.312;9.244;2023-08-24T00:05:33;18.00;99.90
3940;DHT22;1984;48.312;9.244;2023-08-24T00:07:59;18.00;99.90
3940;DHT22;1984;48.312;9.244;2023-08-24T00:10:25;18.00;99.90
3940;DHT22;1984;48.312;9.244;2023-08-24T00:12:51;18.00;99.90
3940;DHT22;1984;48.312;9.244;2023-08-24T00:15:16;17.90;99.90
3940;DHT22;1984;48.312;9.244;2023-08-24T00:17:42;17.80;99.90
3940;DHT22;1984;48.312;9.244;2023-08-24T00:20:07;17.80;99.90
3940;DHT22;1984;48.312;9.244;2023-08-24T00:22:36;17.80;99.90
3940;DHT22;1984;48.312;9.244;2023-08-24T00:25:02;17.80;99.90
3940;DHT22;1984;48.312;9.244;2023-08-24T00:27:28;17.80;99.90
3940;DHT22;1984;48.312;9.244;2023-08-24T00:29:53;17.80;99.90
3940;DHT22;1984;48.312;9.244;2023-08-24T00:32:19;17.80;99.90
3940;DHT22;1984;48.312;9.244;2023-08-24T00:34:45;17.80;99.90
3940;DHT22;1984;48.312;9.244;2023-08-24T00:37:10;17.80;99.90
3940;DHT22;1984;48.312;9.244;2023-08-24T00:39:36;17.70;99.90
3940;DHT22;1984;48.312;9.244;2023-08-24T00:42:02;17.60;99.90
3940;DHT22;1984;48.312;9.244;2023-08-24T00:44:28;17.50;99.90
3940;DHT22;1984;48.312;9.244;2023-08-24T00:46:53;17.40;99.90
3940;DHT22;1984;48.312;9.244;2023-08-24T00:49:20;17.40;99.90
3940;DHT22;1984;48.312;9.244;2023-08-24T00:51:46;17.40;99.90
3940;DHT22;1984;48.312;9.244;2023-08-24T00:54:12;17.50;99.90
3940;DHT22;1984;48.312;9.244;2023-08-24T00:56:37;17.50;99.90
3940;DHT22;1984;48.312;9.244;2023-08-24T00:59:03;17.50;99.90
3940;DHT22;1984;48.312;9.244;2023-08-24T01:01:28;17.50;99.90
3940;DHT22;1984;48.312;9.244;2023-08-24T01:03:54;17.50;99.90
3940;DHT22;1984;48.312;9.244;2023-08-24T01:06:20;17.60;99.90
3940;DHT22;1984;48.312;9.244;2023-08-24T01:08:45;17.50;99.90
3940;DHT22;1984;48.312;9.244;2023-08-24T01:11:32;17.50;99.90
3940;DHT22;1984;48.312;9.244;2023-08-24T01:16:50;17.40;99.90
3940;DHT22;1984;48.312;9.244;2023-08-24T01:19:57;17.30;99.90
3940;DHT22;1984;48.312;9.244;2023-08-24T01:22:33;17.20;99.90
3940;DHT22;1984;48.312;9.244;2023-08-24T01:25:16;17.30;99.90
3940;DHT22;1984;48.312;9.244;2023-08-24T01:27:42;17.20;99.90
3940;DHT22;1984;48.312;9.244;2023-08-24T01:30:09;17.30;99.90
3940;DHT22;1984;48.312;9.244;2023-08-24T01:32:36;17.40;99.90
3940;DHT22;1984;48.312;9.244;2023-08-24T01:35:06;17.40;99.90
3940;DHT22;1984;48.312;9.244;2023-08-24T01:37:34;17.40;99.90
3940;DHT22;1984;48.312;9.244;2023-08-24T01:40:07;17.30;99.90
3940;DHT22;1984;48.312;9.244;2023-08-24T01:42:51;17.30;99.90
3940;DHT22;1984;48.312;9.244;2023-08-24T01:45:17;17.20;99.90
3940;DHT22;1984;48.312;9.244;2023-08-24T01:47:45;17.10;99.90
3940;DHT22;1984;48.312;9.244;2023-08-24T01:50:12;17.10;99.90
3940;DHT22;1984;48.312;9.244;2023-08-24T01:52:38;17.00;99.90
3940;DHT22;1984;48.312;9.244;2023-08-24T01:55:05;17.00;99.90
3940;DHT22;1984;48.312;9.244;2023-08-24T01:57:31;17.00;99.90
3940;DHT22;1984;48.312;9.244;2023-08-24T01:59:56;17.10;99.90
3940;DHT22;1984;48.312;9.244;2023-08-24T02:02:23;17.10;99.90
3940;DHT22;1984;48.312;9.244;2023-08-24T02:04:49;17.10;99.90
3940;DHT22;1984;48.312;9.244;2023-08-24T02:07:14;17.10;99.90
3940;DHT22;1984;48.312;9.244;2023-08-24T02:09:40;17.20;99.90
3940;DHT22;1984;48.312;9.244;2023-08-24T02:12:05;17.20;99.90
3940;DHT22;1984;48.312;9.244;2023-08-24T02:14:31;17.20;99.90
3940;DHT22;1984;48.312;9.244;2023-08-24T02:16:56;17.20;99.90
3940;DHT22;1984;48.312;9.244;2023-08-24T02:19:22;17.20;99.90
3940;DHT22;1984;48.312;9.244;2023-08-24T02:21:48;17.10;99.90
3940;DHT22;1984;48.312;9.244;2023-08-24T02:24:13;17.00;99.90
3940;DHT22;1984;48.312;9.244;2023-08-24T02:26:39;16.90;99.90
3940;DHT22;1984;48.312;9.244;2023-08-24T02:29:04;16.90;99.90
3940;DHT22;1984;48.312;9.244;2023-08-24T02:31:30;16.90;99.90
3940;DHT22;1984;48.312;9.244;2023-08-24T02:33:55;16.90;99.90
3940;DHT22;1984;48.312;9.244;2023-08-24T02:36:21;16.90;99.90
3940;DHT22;1984;48.312;9.244;2023-08-24T02:38:47;16.80;99.90
3940;DHT22;1984;48.312;9.244;2023-08-24T02:41:12;16.80;99.90
3940;DHT22;1984;48.312;9.244;2023-08-24T02:43:40;16.70;99.90
3940;DHT22;1984;48.312;9.244;2023-08-24T02:46:07;16.70;99.90
3940;DHT22;1984;48.312;9.244;2023-08-24T02:48:33;16.70;99.90
3940;DHT22;1984;48.312;9.244;2023-08-24T02:51:00;16.70;99.90
3940;DHT22;1984;48.312;9.244;2023-08-24T02:53:26;16.80;99.90
3940;DHT22;1984;48.312;9.244;2023-08-24T02:55:53;16.80;99.90
3940;DHT22;1984;48.312;9.244;2023-08-24T02:58:19;16.80;99.90
3940;DHT22;1984;48.312;9.244;2023-08-24T03:00:45;16.80;99.90
3940;DHT22;1984;48.312;9.244;2023-08-24T03:03:10;16.80;99.90
3940;DHT22;1984;48.312;9.244;2023-08-24T03:05:36;16.80;99.90
3940;DHT22;1984;48.312;9.244;2023-08-24T03:08:01;16.80;99.90
3940;DHT22;1984;48.312;9.244;2023-08-24T03:10:30;16.70;99.90
3940;DHT22;1984;48.312;9.244;2023-08-24T03:12:55;16.60;99.90
3940;DHT22;1984;48.312;9.244;2023-08-24T03:15:21;16.50;99.90
3940;DHT22;1984;48.312;9.244;2023-08-24T03:17:46;16.50;99.90
3940;DHT22;1984;48.312;9.244;2023-08-24T03:20:12;16.40;99.90
3940;DHT22;1984;48.312;9.244;2023-08-24T03:22:38;16.40;99.90
3940;DHT22;1984;48.312;9.244;2023-08-24T03:25:03;16.30;99.90
3940;DHT22;1984;48.312;9.244;2023-08-24T03:27:30;16.40;99.90
3940;DHT22;1984;48.312;9.244;2023-08-24T03:29:55;16.40;99.90
3940;DHT22;1984;48.312;9.244;2023-08-24T03:32:21;16.50;99.90
3940;DHT22;1984;48.312;9.244;2023-08-24T03:34:46;16.60;99.90
3940;DHT22;1984;48.312;9.244;2023-08-24T03:37:12;16.60;99.90
3940;DHT22;1984;48.312;9.244;2023-08-24T03:39:38;16.60;99.90
3940;DHT22;1984;48.312;9.244;2023-08-24T03:42:04;16.60;99.90
3940;DHT22;1984;48.312;9.244;2023-08-24T03:44:29;16.60;99.90
3940;DHT22;1984;48.312;9.244;2023-08-24T03:46:55;16.70;99.90
3940;DHT22;1984;48.312;9.244;2023-08-24T03:49:20;16.70;99.90
3940;DHT22;1984;48.312;9.244;2023-08-24T03:51:46;16.60;99.90
3940;DHT22;1984;48.312;9.244;2023-08-24T03:54:11;16.60;99.90
3940;DHT22;1984;48.312;9.244;2023-08-24T03:56:37;16.70;99.90
3940;DHT22;1984;48.312;9.244;2023-08-24T03:59:02;16.70;99.90
3940;DHT22;1984;48.312;9.244;2023-08-24T04:01:28;16.60;99.90
3940;DHT22;1984;48.312;9.244;2023-08-24T04:03:54;16.60;99.90
3940;DHT22;1984;48.312;9.244;2023-08-24T04:06:19;16.70;99.90
3940;DHT22;1984;48.312;9.244;2023-08-24T04:08:45;16.70;99.90
3940;DHT22;1984;48.312;9.244;2023-08-24T04:11:10;16.80;99.90
3940;DHT22;1984;48.312;9.244;2023-08-24T04:13:36;16.90;99.90
3940;DHT22;1984;48.312;9.244;2023-08-24T04:16:01;16.90;99.90
3940;DHT22;1984;48.312;9.244;2023-08-24T04:18:29;17.00;99.90
3940;DHT22;1984;48.312;9.244;2023-08-24T04:20:54;17.00;99.90
3940;DHT22;1984;48.312;9.244;2023-08-24T04:23:24;17.00;99.90
3940;DHT22;1984;48.312;9.244;2023-08-24T04:25:51;17.00;99.90
3940;DHT22;1984;48.312;9.244;2023-08-24T04:28:16;16.90;99.90
3940;DHT22;1984;48.312;9.244;2023-08-24T04:30:54;16.90;99.90
3940;DHT22;1984;48.312;9.244;2023-08-24T04:33:20;16.80;99.90
3940;DHT22;1984;48.312;9.244;2023-08-24T04:35:47;16.90;99.90
3940;DHT22;1984;48.312;9.244;2023-08-24T04:38:13;16.90;99.90
3940;DHT22;1984;48.312;9.244;2023-08-24T04:41:07;16.90;99.90
3940;DHT22;1984;48.312;9.244;2023-08-24T04:43:33;16.90;99.90
3940;DHT22;1984;48.312;9.244;2023-08-24T04:45:59;16.80;99.90
3940;DHT22;1984;48.312;9.244;2023-08-24T04:48:25;16.80;99.90
3940;DHT22;1984;48.312;9.244;2023-08-24T04:50:51;16.80;99.90
3940;DHT22;1984;48.312;9.244;2023-08-24T04:53:19;16.70;99.90
3940;DHT22;1984;48.312;9.244;2023-08-24T04:55:46;16.70;99.90
3940;DHT22;1984;48.312;9.244;2023-08-24T04:58:13;16.70;99.90
3940;DHT22;1984;48.312;9.244;2023-08-24T05:00:39;16.70;99.90
3940;DHT22;1984;48.312;9.244;2023-08-24T05:03:06;16.70;99.90
3940;DHT22;1984;48.312;9.244;2023-08-24T05:05:32;16.80;99.90
3940;DHT22;1984;48.312;9.244;2023-08-24T05:07:58;16.80;99.90
3940;DHT22;1984;48.312;9.244;2023-08-24T05:10:25;16.90;99.90
3940;DHT22;1984;48.312;9.244;2023-08-24T05:12:50;17.00;99.90
3940;DHT22;1984;48.312;9.244;2023-08-24T05:15:16;17.00;99.90
3940;DHT22;1984;48.312;9.244;2023-08-24T05:17:42;17.10;99.90
3940;DHT22;1984;48.312;9.244;2023-08-24T05:20:08;17.10;99.90
3940;DHT22;1984;48.312;9.244;2023-08-24T05:22:36;17.00;99.90
3940;DHT22;1984;48.312;9.244;2023-08-24T05:25:01;17.10;99.90
3940;DHT22;1984;48.312;9.244;2023-08-24T05:27:27;17.10;99.90
3940;DHT22;1984;48.312;9.244;2023-08-24T05:29:52;17.10;99.90
3940;DHT22;1984;48.312;9.244;2023-08-24T05:32:18;17.20;99.90
3940;DHT22;1984;48.312;9.244;2023-08-24T05:34:45;17.30;99.90
3940;DHT22;1984;48.312;9.244;2023-08-24T05:37:11;17.30;99.90
3940;DHT22;1984;48.312;9.244;2023-08-24T05:39:36;17.30;99.90
3940;DHT22;1984;48.312;9.244;2023-08-24T05:42:02;17.40;99.90
3940;DHT22;1984;48.312;9.244;2023-08-24T05:44:28;17.50;99.90
3940;DHT22;1984;48.312;9.244;2023-08-24T05:46:53;17.70;99.90
3940;DHT22;1984;48.312;9.244;2023-08-24T05:49:19;17.80;99.90
3940;DHT22;1984;48.312;9.244;2023-08-24T05:51:45;18.00;99.90
3940;DHT22;1984;48.312;9.244;2023-08-24T05:54:10;18.10;99.90
3940;DHT22;1984;48.312;9.244;2023-08-24T05:56:36;18.20;99.90
3940;DHT22;1984;48.312;9.244;2023-08-24T05:59:02;18.20;99.90
3940;DHT22;1984;48.312;9.244;2023-08-24T06:01:28;18.10;99.90
3940;DHT22;1984;48.312;9.244;2023-08-24T06:03:53;18.20;99.90
3940;DHT22;1984;48.312;9.244;2023-08-24T06:06:19;18.30;99.90
3940;DHT22;1984;48.312;9.244;2023-08-24T06:08:44;18.40;99.90
3940;DHT22;1984;48.312;9.244;2023-08-24T06:11:10;18.50;99.90
3940;DHT22;1984;48.312;9.244;2023-08-24T06:13:36;18.50;99.90
3940;DHT22;1984;48.312;9.244;2023-08-24T06:16:02;18.60;99.90
3940;DHT22;1984;48.312;9.244;2023-08-24T06:18:28;18.80;99.90
3940;DHT22;1984;48.312;9.244;2023-08-24T06:20:54;18.90;99.90
3940;DHT22;1984;48.312;9.244;2023-08-24T06:23:20;19.00;99.90
3940;DHT22;1984;48.312;9.244;2023-08-24T06:25:45;19.20;99.90
3940;DHT22;1984;48.312;9.244;2023-08-24T06:28:11;19.30;99.90
3940;DHT22;1984;48.312;9.244;2023-08-24T06:30:38;19.40;99.90
3940;DHT22;1984;48.312;9.244;2023-08-24T06:33:05;19.50;99.90
3940;DHT22;1984;48.312;9.244;2023-08-24T06:35:31;19.60;99.90
3940;DHT22;1984;48.312;9.244;2023-08-24T06:37:57;19.70;99.90
3940;DHT22;1984;48.312;9.244;2023-08-24T06:40:23;19.80;99.90
3940;DHT22;1984;48.312;9.244;2023-08-24T06:42:48;19.90;99.90
3940;DHT22;1984;48.312;9.244;2023-08-24T06:45:14;20.10;99.90
3940;DHT22;1984;48.312;9.244;2023-08-24T06:47:39;20.30;99.90
3940;DHT22;1984;48.312;9.244;2023-08-24T06:50:06;20.50;99.90
3940;DHT22;1984;48.312;9.244;2023-08-24T06:52:31;20.60;99.90
3940;DHT22;1984;48.312;9.244;2023-08-24T06:54:57;20.90;99.90
3940;DHT22;1984;48.312;9.244;2023-08-24T06:57:23;21.10;99.90
3940;DHT22;1984;48.312;9.244;2023-08-24T06:59:48;21.40;99.90
3940;DHT22;1984;48.312;9.244;2023-08-24T07:02:14;21.60;99.90
3940;DHT22;1984;48.312;9.244;2023-08-24T07:04:40;21.80;99.90
3940;DHT22;1984;48.312;9.244;2023-08-24T07:07:06;21.90;99.90
3940;DHT22;1984;48.312;9.244;2023-08-24T07:09:32;22.00;99.90
3940;DHT22;1984;48.312;9.244;2023-08-24T07:11:57;22.10;99.90
3940;DHT22;1984;48.312;9.244;2023-08-24T07:14:23;22.10;99.90
3940;DHT22;1984;48.312;9.244;2023-08-24T07:16:48;22.20;99.90
3940;DHT22;1984;48.312;9.244;2023-08-24T07:19:14;22.30;99.90
3940;DHT22;1984;48.312;9.244;2023-08-24T07:21:40;22.30;99.90
3940;DHT22;1984;48.312;9.244;2023-08-24T07:24:05;22.50;99.90
3940;DHT22;1984;48.312;9.244;2023-08-24T07:26:31;22.60;99.90
3940;DHT22;1984;48.312;9.244;2023-08-24T07:28:57;22.60;99.90
3940;DHT22;1984;48.312;9.244;2023-08-24T07:31:23;22.70;99.90
3940;DHT22;1984;48.312;9.244;2023-08-24T07:33:48;23.00;99.90
3940;DHT22;1984;48.312;9.244;2023-08-24T07:36:14;23.30;99.90
3940;DHT22;1984;48.312;9.244;2023-08-24T07:38:40;23.70;99.90
3940;DHT22;1984;48.312;9.244;2023-08-24T07:41:05;24.30;99.90
3940;DHT22;1984;48.312;9.244;2023-08-24T07:43:32;24.70;99.90
3940;DHT22;1984;48.312;9.244;2023-08-24T07:45:58;25.30;99.90
3940;DHT22;1984;48.312;9.244;2023-08-24T07:48:25;25.50;99.90
3940;DHT22;1984;48.312;9.244;2023-08-24T07:50:50;25.70;99.90
3940;DHT22;1984;48.312;9.244;2023-08-24T07:53:16;25.80;99.90
3940;DHT22;1984;48.312;9.244;2023-08-24T07:55:42;26.20;99.90
3940;DHT22;1984;48.312;9.244;2023-08-24T07:58:08;26.60;99.90
3940;DHT22;1984;48.312;9.244;2023-08-24T08:00:34;26.90;99.90
3940;DHT22;1984;48.312;9.244;2023-08-24T08:03:00;27.60;99.90
3940;DHT22;1984;48.312;9.244;2023-08-24T08:05:25;29.00;99.90
3940;DHT22;1984;48.312;9.244;2023-08-24T08:07:51;29.90;99.90
3940;DHT22;1984;48.312;9.244;2023-08-24T08:10:16;30.90;99.90
3940;DHT22;1984;48.312;9.244;2023-08-24T08:12:43;32.00;99.90
3940;DHT22;1984;48.312;9.244;2023-08-24T08:15:08;32.80;99.90
3940;DHT22;1984;48.312;9.244;2023-08-24T08:17:34;33.50;99.90
3940;DHT22;1984;48.312;9.244;2023-08-24T08:20:00;34.40;99.90
3940;DHT22;1984;48.312;9.244;2023-08-24T08:22:25;35.30;97.70
3940;DHT22;1984;48.312;9.244;2023-08-24T08:24:51;35.90;96.70
3940;DHT22;1984;48.312;9.244;2023-08-24T08:27:19;36.00;95.90
3940;DHT22;1984;48.312;9.244;2023-08-24T08:29:45;36.40;94.30
3940;DHT22;1984;48.312;9.244;2023-08-24T08:32:11;36.50;93.50
3940;DHT22;1984;48.312;9.244;2023-08-24T08:34:38;36.20;93.10
3940;DHT22;1984;48.312;9.244;2023-08-24T08:37:03;36.20;93.50
3940;DHT22;1984;48.312;9.244;2023-08-24T08:39:31;36.40;93.30
3940;DHT22;1984;48.312;9.244;2023-08-24T08:41:57;36.30;92.90
3940;DHT22;1984;48.312;9.244;2023-08-24T08:44:23;36.10;93.00
3940;DHT22;1984;48.312;9.244;2023-08-24T08:46:49;36.10;92.80
3940;DHT22;1984;48.312;9.244;2023-08-24T08:49:16;36.30;92.60
3940;DHT22;1984;48.312;9.244;2023-08-24T08:51:42;36.80;92.00
3940;DHT22;1984;48.312;9.244;2023-08-24T08:54:08;37.30;91.90
3940;DHT22;1984;48.312;9.244;2023-08-24T08:56:34;37.80;91.10
3940;DHT22;1984;48.312;9.244;2023-08-24T08:59:00;37.80;90.30
3940;DHT22;1984;48.312;9.244;2023-08-24T09:01:27;38.30;90.10
3940;DHT22;1984;48.312;9.244;2023-08-24T09:03:54;37.80;87.90
3940;DHT22;1984;48.312;9.244;2023-08-24T09:06:20;37.40;89.10
3940;DHT22;1984;48.312;9.244;2023-08-24T09:08:47;37.40;89.40
3940;DHT22;1984;48.312;9.244;2023-08-24T09:11:13;37.70;86.80
3940;DHT22;1984;48.312;9.244;2023-08-24T09:13:39;37.80;87.80
3940;DHT22;1984;48.312;9.244;2023-08-24T09:16:06;38.10;86.70
3940;DHT22;1984;48.312;9.244;2023-08-24T09:18:39;38.70;84.90
3940;DHT22;1984;48.312;9.244;2023-08-24T09:21:13;39.00;85.40
3940;DHT22;1984;48.312;9.244;2023-08-24T09:23:59;39.30;83.40
3940;DHT22;1984;48.312;9.244;2023-08-24T09:26:31;39.00;83.10
3940;DHT22;1984;48.312;9.244;2023-08-24T09:28:59;38.50;84.40
3940;DHT22;1984;48.312;9.244;2023-08-24T09:31:51;38.70;82.80
3940;DHT22;1984;48.312;9.244;2023-08-24T09:34:20;38.20;82.70
3940;DHT22;1984;48.312;9.244;2023-08-24T09:36:47;38.00;83.30
3940;DHT22;1984;48.312;9.244;2023-08-24T09:39:16;38.50;83.90
3940;DHT22;1984;48.312;9.244;2023-08-24T09:41:44;39.00;82.90
3940;DHT22;1984;48.312;9.244;2023-08-24T09:44:10;38.70;81.70
3940;DHT22;1984;48.312;9.244;2023-08-24T09:46:37;38.70;82.30
3940;DHT22;1984;48.312;9.244;2023-08-24T09:49:05;38.70;82.00
3940;DHT22;1984;48.312;9.244;2023-08-24T09:51:33;39.00;82.90
3940;DHT22;1984;48.312;9.244;2023-08-24T09:53:58;39.80;85.20
3940;DHT22;1984;48.312;9.244;2023-08-24T09:56:28;40.00;79.20
3940;DHT22;1984;48.312;9.244;2023-08-24T09:58:54;39.70;79.60
3940;DHT22;1984;48.312;9.244;2023-08-24T10:01:21;39.70;79.70
3940;DHT22;1984;48.312;9.244;2023-08-24T10:03:51;40.10;79.20
3940;DHT22;1984;48.312;9.244;2023-08-24T10:06:21;40.60;78.30
3940;DHT22;1984;48.312;9.244;2023-08-24T10:08:54;39.60;78.10
3940;DHT22;1984;48.312;9.244;2023-08-24T10:11:26;38.90;79.70
3940;DHT22;1984;48.312;9.244;2023-08-24T10:14:04;38.60;79.50
3940;DHT22;1984;48.312;9.244;2023-08-24T10:16:33;38.70;80.70
3940;DHT22;1984;48.312;9.244;2023-08-24T10:19:02;38.60;81.00
3940;DHT22;1984;48.312;9.244;2023-08-24T10:21:28;38.40;79.20
3940;DHT22;1984;48.312;9.244;2023-08-24T10:23:56;38.50;80.10
3940;DHT22;1984;48.312;9.244;2023-08-24T10:26:23;38.00;81.50
3940;DHT22;1984;48.312;9.244;2023-08-24T10:28:50;38.50;83.00
3940;DHT22;1984;48.312;9.244;2023-08-24T10:31:16;38.90;79.10
3940;DHT22;1984;48.312;9.244;2023-08-24T10:33:44;38.80;79.20
3940;DHT22;1984;48.312;9.244;2023-08-24T10:36:10;37.90;78.90
3940;DHT22;1984;48.312;9.244;2023-08-24T10:38:42;36.70;81.00
3940;DHT22;1984;48.312;9.244;2023-08-24T10:41:08;36.30;81.90
3940;DHT22;1984;48.312;9.244;2023-08-24T10:43:37;36.40;82.40
3940;DHT22;1984;48.312;9.244;2023-08-24T10:46:03;36.60;83.10
3940;DHT22;1984;48.312;9.244;2023-08-24T10:51:24;37.30;80.90
3940;DHT22;1984;48.312;9.244;2023-08-24T10:54:03;36.40;82.40
3940;DHT22;1984;48.312;9.244;2023-08-24T10:56:37;35.50;82.70
3940;DHT22;1984;48.312;9.244;2023-08-24T10:59:16;35.50;84.10
3940;DHT22;1984;48.312;9.244;2023-08-24T11:02:04;35.10;84.80
3940;DHT22;1984;48.312;9.244;2023-08-24T11:04:29;35.00;85.20
3940;DHT22;1984;48.312;9.244;2023-08-24T11:06:57;33.90;88.10
3940;DHT22;1984;48.312;9.244;2023-08-24T11:09:24;33.10;89.30
3940;DHT22;1984;48.312;9.244;2023-08-24T11:12:02;33.30;90.40
3940;DHT22;1984;48.312;9.244;2023-08-24T11:14:29;33.50;90.20
3940;DHT22;1984;48.312;9.244;2023-08-24T11:17:20;33.20;90.30
3940;DHT22;1984;48.312;9.244;2023-08-24T11:19:51;33.00;90.80
3940;DHT22;1984;48.312;9.244;2023-08-24T11:22:18;33.00;91.20
3940;DHT22;1984;48.312;9.244;2023-08-24T11:24:44;32.70;91.40
3940;DHT22;1984;48.312;9.244;2023-08-24T11:27:09;32.50;91.40
3940;DHT22;1984;48.312;9.244;2023-08-24T11:29:35;32.00;92.10
3940;DHT22;1984;48.312;9.244;2023-08-24T11:32:02;31.60;92.70
3940;DHT22;1984;48.312;9.244;2023-08-24T11:34:28;31.50;93.10
3940;DHT22;1984;48.312;9.244;2023-08-24T11:36:53;31.60;93.10
3940;DHT22;1984;48.312;9.244;2023-08-24T11:39:23;31.70;93.20
3940;DHT22;1984;48.312;9.244;2023-08-24T11:42:05;31.70;92.60
3940;DHT22;1984;48.312;9.244;2023-08-24T11:44:50;31.80;93.10
3940;DHT22;1984;48.312;9.244;2023-08-24T11:47:16;31.80;93.10
3940;DHT22;1984;48.312;9.244;2023-08-24T11:49:42;31.60;93.80
3940;DHT22;1984;48.312;9.244;2023-08-24T11:52:08;31.60;93.30
3940;DHT22;1984;48.312;9.244;2023-08-24T11:54:35;31.70;92.80
3940;DHT22;1984;48.312;9.244;2023-08-24T11:57:06;31.70;93.00
3940;DHT22;1984;48.312;9.244;2023-08-24T11:59:32;31.70;93.30
3940;DHT22;1984;48.312;9.244;2023-08-24T12:01:57;31.80;92.90
3940;DHT22;1984;48.312;9.244;2023-08-24T12:04:24;31.80;93.50
3940;DHT22;1984;48.312;9.244;2023-08-24T12:06:49;31.70;93.40
3940;DHT22;1984;48.312;9.244;2023-08-24T12:09:15;31.50;92.70
3940;DHT22;1984;48.312;9.244;2023-08-24T12:11:41;31.20;92.00
3940;DHT22;1984;48.312;9.244;2023-08-24T12:14:07;31.30;92.90
3940;DHT22;1984;48.312;9.244;2023-08-24T12:16:41;31.50;91.30
3940;DHT22;1984;48.312;9.244;2023-08-24T12:19:07;31.50;90.80
3940;DHT22;1984;48.312;9.244;2023-08-24T12:21:33;31.60;90.40
3940;DHT22;1984;48.312;9.244;2023-08-24T12:26:26;31.70;91.30
3940;DHT22;1984;48.312;9.244;2023-08-24T12:28:52;31.60;91.80
3940;DHT22;1984;48.312;9.244;2023-08-24T12:31:18;31.40;92.20
3940;DHT22;1984;48.312;9.244;2023-08-24T12:33:44;31.30;93.10
3940;DHT22;1984;48.312;9.244;2023-08-24T12:36:10;31.40;94.00
3940;DHT22;1984;48.312;9.244;2023-08-24T12:38:36;31.70;92.10
3940;DHT22;1984;48.312;9.244;2023-08-24T12:41:02;31.60;91.60
3940;DHT22;1984;48.312;9.244;2023-08-24T12:43:27;31.50;92.30
3940;DHT22;1984;48.312;9.244;2023-08-24T12:45:53;31.50;92.10
3940;DHT22;1984;48.312;9.244;2023-08-24T12:48:18;31.40;92.10
3940;DHT22;1984;48.312;9.244;2023-08-24T12:50:44;31.00;92.50
3940;DHT22;1984;48.312;9.244;2023-08-24T12:53:10;30.90;92.30
3940;DHT22;1984;48.312;9.244;2023-08-24T12:55:38;31.10;92.60
3940;DHT22;1984;48.312;9.244;2023-08-24T12:58:04;31.30;92.70
3940;DHT22;1984;48.312;9.244;2023-08-24T13:00:29;31.40;92.00
3940;DHT22;1984;48.312;9.244;2023-08-24T13:02:55;31.40;92.80
3940;DHT22;1984;48.312;9.244;2023-08-24T13:05:21;31.30;92.80
3940;DHT22;1984;48.312;9.244;2023-08-24T13:07:47;31.20;93.10
3940;DHT22;1984;48.312;9.244;2023-08-24T13:10:13;31.00;93.20
3940;DHT22;1984;48.312;9.244;2023-08-24T13:12:39;30.90;94.00
3940;DHT22;1984;48.312;9.244;2023-08-24T13:15:05;30.90;93.80
3940;DHT22;1984;48.312;9.244;2023-08-24T13:17:31;30.80;93.60
3940;DHT22;1984;48.312;9.244;2023-08-24T13:19:56;31.00;94.20
3940;DHT22;1984;48.312;9.244;2023-08-24T13:22:22;31.20;93.90
3940;DHT22;1984;48.312;9.244;2023-08-24T13:24:48;31.30;93.90
3940;DHT22;1984;48.312;9.244;2023-08-24T13:27:13;31.40;92.90
3940;DHT22;1984;48.312;9.244;2023-08-24T13:29:40;31.30;93.70
3940;DHT22;1984;48.312;9.244;2023-08-24T13:32:06;31.30;92.80
3940;DHT22;1984;48.312;9.244;2023-08-24T13:34:32;31.30;92.90
3940;DHT22;1984;48.312;9.244;2023-08-24T13:36:57;31.30;93.30
3940;DHT22;1984;48.312;9.244;2023-08-24T13:39:26;31.40;92.80
3940;DHT22;1984;48.312;9.244;2023-08-24T13:42:01;31.30;93.00
3940;DHT22;1984;48.312;9.244;2023-08-24T13:44:27;31.50;94.20
3940;DHT22;1984;48.312;9.244;2023-08-24T13:46:53;31.80;94.20
3940;DHT22;1984;48.312;9.244;2023-08-24T13:49:19;31.90;92.70
3940;DHT22;1984;48.312;9.244;2023-08-24T13:51:44;32.00;92.20
3940;DHT22;1984;48.312;9.244;2023-08-24T13:54:17;32.00;92.40
3940;DHT22;1984;48.312;9.244;2023-08-24T13:56:44;31.90;90.90
3940;DHT22;1984;48.312;9.244;2023-08-24T13:59:09;31.90;91.40
3940;DHT22;1984;48.312;9.244;2023-08-24T14:01:35;32.00;92.40
3940;DHT22;1984;48.312;9.244;2023-08-24T14:04:02;32.10;91.80
3940;DHT22;1984;48.312;9.244;2023-08-24T14:06:31;32.20;91.60
3940;DHT22;1984;48.312;9.244;2023-08-24T14:08:58;32.20;92.70
3940;DHT22;1984;48.312;9.244;2023-08-24T14:11:23;32.10;93.00
3940;DHT22;1984;48.312;9.244;2023-08-24T14:13:49;32.00;93.90
3940;DHT22;1984;48.312;9.244;2023-08-24T14:16:17;32.00;93.50
3940;DHT22;1984;48.312;9.244;2023-08-24T14:18:42;32.20;93.20
3940;DHT22;1984;48.312;9.244;2023-08-24T14:21:08;32.30;92.40
3940;DHT22;1984;48.312;9.244;2023-08-24T14:23:35;32.40;91.10
3940;DHT22;1984;48.312;9.244;2023-08-24T14:26:01;32.50;90.80
3940;DHT22;1984;48.312;9.244;2023-08-24T14:28:50;32.60;90.50
3940;DHT22;1984;48.312;9.244;2023-08-24T14:31:19;32.70;90.70
3940;DHT22;1984;48.312;9.244;2023-08-24T14:33:45;32.90;90.20
3940;DHT22;1984;48.312;9.244;2023-08-24T14:36:11;32.90;88.40
3940;DHT22;1984;48.312;9.244;2023-08-24T14:38:40;32.80;89.10
3940;DHT22;1984;48.312;9.244;2023-08-24T14:41:10;32.70;90.00
3940;DHT22;1984;48.312;9.244;2023-08-24T14:43:37;32.60;90.40
3940;DHT22;1984;48.312;9.244;2023-08-24T14:46:02;32.50;89.30
3940;DHT22;1984;48.312;9.244;2023-08-24T14:48:29;32.40;90.90
3940;DHT22;1984;48.312;9.244;2023-08-24T14:50:55;32.40;90.80
3940;DHT22;1984;48.312;9.244;2023-08-24T14:53:22;32.50;91.00
3940;DHT22;1984;48.312;9.244;2023-08-24T14:55:48;32.70;91.30
3940;DHT22;1984;48.312;9.244;2023-08-24T14:58:14;32.80;90.60
3940;DHT22;1984;48.312;9.244;2023-08-24T15:00:39;33.00;90.70
3940;DHT22;1984;48.312;9.244;2023-08-24T15:03:05;33.10;90.70
3940;DHT22;1984;48.312;9.244;2023-08-24T15:05:30;33.30;91.90
3940;DHT22;1984;48.312;9.244;2023-08-24T15:07:56;33.40;91.30
3940;DHT22;1984;48.312;9.244;2023-08-24T15:10:21;33.40;91.20
3940;DHT22;1984;48.312;9.244;2023-08-24T15:12:47;33.30;90.00
3940;DHT22;1984;48.312;9.244;2023-08-24T15:15:13;33.20;90.00
3940;DHT22;1984;48.312;9.244;2023-08-24T15:17:43;33.10;89.70
3940;DHT22;1984;48.312;9.244;2023-08-24T15:20:10;33.00;90.90
3940;DHT22;1984;48.312;9.244;2023-08-24T15:22:38;33.00;90.10
3940;DHT22;1984;48.312;9.244;2023-08-24T15:25:04;33.00;90.20
3940;DHT22;1984;48.312;9.244;2023-08-24T15:27:30;32.90;90.20
3940;DHT22;1984;48.312;9.244;2023-08-24T15:29:55;32.70;90.30
3940;DHT22;1984;48.312;9.244;2023-08-24T15:32:21;32.70;91.10
3940;DHT22;1984;48.312;9.244;2023-08-24T15:34:47;32.60;90.70
3940;DHT22;1984;48.312;9.244;2023-08-24T15:37:13;32.60;91.10
3940;DHT22;1984;48.312;9.244;2023-08-24T15:39:39;32.60;92.10
3940;DHT22;1984;48.312;9.244;2023-08-24T15:42:06;32.50;90.70
3940;DHT22;1984;48.312;9.244;2023-08-24T15:44:32;32.40;91.00
3940;DHT22;1984;48.312;9.244;2023-08-24T15:46:57;32.30;93.00
3940;DHT22;1984;48.312;9.244;2023-08-24T15:49:23;32.20;93.60
3940;DHT22;1984;48.312;9.244;2023-08-24T15:51:50;32.00;93.20
3940;DHT22;1984;48.312;9.244;2023-08-24T15:54:15;31.80;93.50
3940;DHT22;1984;48.312;9.244;2023-08-24T15:56:41;31.70;92.70
3940;DHT22;1984;48.312;9.244;2023-08-24T15:59:13;31.50;93.10
3940;DHT22;1984;48.312;9.244;2023-08-24T16:01:38;31.20;93.60
3940;DHT22;1984;48.312;9.244;2023-08-24T16:04:04;30.90;93.80
3940;DHT22;1984;48.312;9.244;2023-08-24T16:06:30;30.70;94.70
3940;DHT22;1984;48.312;9.244;2023-08-24T16:08:56;30.60;97.60